createdAt,value
2018-02-27T00:01:16.429Z,-3.30
2018-02-27T00:03:43.925Z,-3.40
2018-02-27T00:06:11.450Z,-3.30
2018-02-27T00:08:38.956Z,-3.70
2018-02-27T00:11:06.448Z,-3.60
2018-02-27T00:13:34.713Z,-3.60
2018-02-27T00:16:02.987Z,-3.60
2018-02-27T00:18:31.274Z,-3.60
2018-02-27T00:20:59.572Z,-3.50
2018-02-27T00:23:27.071Z,-3.50
2018-02-27T00:25:54.577Z,-3.50
2018-02-27T00:28:22.091Z,-3.70
2018-02-27T00:30:49.642Z,-3.70
2018-02-27T00:33:17.148Z,-3.80
2018-02-27T00:35:45.428Z,-4.10
2018-02-27T00:38:12.940Z,-4.20
2018-02-27T00:40:40.433Z,-4.10
2018-02-27T00:43:08.716Z,-4.20
2018-02-27T00:45:36.997Z,-4.40
2018-02-27T00:48:04.488Z,-4.40
2018-02-27T00:50:32.007Z,-4.20
2018-02-27T00:53:00.285Z,-4.30
2018-02-27T00:55:27.798Z,-4.30
2018-02-27T00:57:55.308Z,-4.20
2018-02-27T01:00:22.839Z,-4.30
2018-02-27T01:02:50.343Z,-4.40
2018-02-27T01:05:17.834Z,-4.40
2018-02-27T01:07:45.346Z,-4.50
2018-02-27T01:10:12.860Z,-4.50
2018-02-27T01:12:40.377Z,-4.50
2018-02-27T01:15:07.883Z,-4.30
2018-02-27T01:17:35.388Z,-4.40
2018-02-27T01:20:02.898Z,-4.40
2018-02-27T01:22:30.385Z,-4.50
2018-02-27T01:24:57.920Z,-4.50
2018-02-27T01:27:26.186Z,-4.50
2018-02-27T01:29:53.699Z,-4.50
2018-02-27T01:32:21.234Z,-4.40
2018-02-27T01:34:48.732Z,-4.40
2018-02-27T01:37:16.243Z,-4.40
2018-02-27T01:39:44.521Z,-4.50
2018-02-27T01:42:12.790Z,-4.60
2018-02-27T01:44:41.072Z,-4.80
2018-02-27T01:47:09.369Z,-4.90
2018-02-27T01:49:36.879Z,-5.00
2018-02-27T01:52:04.417Z,-5.10
2018-02-27T01:54:31.915Z,-5.10
2018-02-27T01:57:00.209Z,-5.20
2018-02-27T01:59:27.730Z,-5.30
2018-02-27T02:01:55.259Z,-5.30
2018-02-27T02:04:22.758Z,-5.30
2018-02-27T02:06:50.272Z,-5.30
2018-02-27T02:09:17.766Z,-5.40
2018-02-27T02:11:45.288Z,-5.50
2018-02-27T02:14:12.809Z,-5.50
2018-02-27T02:16:40.326Z,-5.50
2018-02-27T02:19:07.832Z,-5.40
2018-02-27T02:21:35.375Z,-5.20
2018-02-27T02:24:03.681Z,-5.20
2018-02-27T02:26:31.185Z,-5.20
2018-02-27T02:28:58.696Z,-5.00
2018-02-27T02:31:26.216Z,-5.00
2018-02-27T02:33:53.780Z,-5.00
2018-02-27T02:36:22.076Z,-5.00
2018-02-27T02:38:49.561Z,-5.10
2018-02-27T02:41:17.074Z,-5.10
2018-02-27T02:43:45.351Z,-5.10
2018-02-27T02:46:13.648Z,-5.00
2018-02-27T02:48:41.158Z,-5.00
2018-02-27T02:51:08.665Z,-4.90
2018-02-27T02:53:36.166Z,-4.90
2018-02-27T02:56:03.699Z,-5.00
2018-02-27T02:58:31.201Z,-5.00
2018-02-27T03:00:58.714Z,-5.10
2018-02-27T03:03:26.206Z,-5.20
2018-02-27T03:05:53.727Z,-5.20
2018-02-27T03:08:21.231Z,-5.20
2018-02-27T03:10:48.742Z,-5.30
2018-02-27T03:13:16.251Z,-5.30
2018-02-27T03:15:43.788Z,-5.30
2018-02-27T03:18:11.286Z,-5.30
2018-02-27T03:20:39.903Z,-5.40
2018-02-27T03:23:07.389Z,-5.40
2018-02-27T03:25:34.915Z,-5.40
2018-02-27T03:28:02.420Z,-5.30
2018-02-27T03:30:29.929Z,-5.40
2018-02-27T03:32:57.454Z,-5.40
2018-02-27T03:35:24.984Z,-5.40
2018-02-27T03:37:52.497Z,-5.40
2018-02-27T03:40:20.015Z,-5.40
2018-02-27T03:42:47.579Z,-5.30
2018-02-27T03:45:15.075Z,-5.40
2018-02-27T03:47:42.585Z,-5.60
2018-02-27T03:50:10.118Z,-5.40
2018-02-27T03:52:37.654Z,-5.40
2018-02-27T03:55:05.174Z,-5.40
2018-02-27T03:57:32.699Z,-5.30
2018-02-27T04:00:00.199Z,-5.30
2018-02-27T04:02:28.487Z,-5.40
2018-02-27T04:04:56.750Z,-5.40
2018-02-27T04:07:24.256Z,-5.40
2018-02-27T04:09:51.772Z,-5.40
2018-02-27T04:12:20.050Z,-5.40
2018-02-27T04:14:48.305Z,-5.50
2018-02-27T04:17:15.816Z,-5.50
2018-02-27T04:19:43.314Z,-5.50
2018-02-27T04:22:10.825Z,-5.60
2018-02-27T04:24:38.321Z,-5.60
2018-02-27T04:27:05.837Z,-5.70
2018-02-27T04:29:33.366Z,-5.70
2018-02-27T04:32:00.863Z,-5.70
2018-02-27T04:34:28.380Z,-5.80
2018-02-27T04:36:55.908Z,-5.80
2018-02-27T04:39:23.406Z,-5.80
2018-02-27T04:41:51.699Z,-5.80
2018-02-27T04:44:19.215Z,-5.80
2018-02-27T04:46:46.727Z,-5.80
2018-02-27T04:49:14.232Z,-5.90
2018-02-27T04:51:41.755Z,-5.90
2018-02-27T04:54:09.255Z,-5.90
2018-02-27T04:56:36.775Z,-5.90
2018-02-27T04:59:04.269Z,-5.90
2018-02-27T05:01:31.794Z,-6.00
2018-02-27T05:03:59.281Z,-6.00
2018-02-27T05:06:26.789Z,-6.10
2018-02-27T05:08:54.301Z,-6.10
2018-02-27T05:11:21.830Z,-6.10
2018-02-27T05:13:49.326Z,-6.10
2018-02-27T05:16:16.851Z,-6.10
2018-02-27T05:18:44.346Z,-6.10
2018-02-27T05:21:11.857Z,-6.20
2018-02-27T05:23:39.353Z,-6.20
2018-02-27T05:26:06.866Z,-6.20
2018-02-27T05:28:34.384Z,-6.20
2018-02-27T05:31:02.667Z,-6.30
2018-02-27T05:33:30.971Z,-6.30
2018-02-27T05:35:58.494Z,-6.30
2018-02-27T05:38:26.759Z,-6.40
2018-02-27T05:40:54.288Z,-6.40
2018-02-27T05:43:21.804Z,-6.40
2018-02-27T05:45:49.342Z,-6.40
2018-02-27T05:48:17.610Z,-6.40
2018-02-27T05:50:45.121Z,-6.40
2018-02-27T05:53:12.635Z,-6.40
2018-02-27T05:55:40.927Z,-6.40
2018-02-27T05:58:09.212Z,-6.40
2018-02-27T06:00:36.790Z,-6.50
2018-02-27T06:03:04.284Z,-6.40
2018-02-27T06:05:31.800Z,-6.50
2018-02-27T06:07:59.312Z,-6.50
2018-02-27T06:10:26.837Z,-6.50
2018-02-27T06:12:54.321Z,-6.60
2018-02-27T06:15:21.843Z,-6.50
2018-02-27T06:17:49.341Z,-6.50
2018-02-27T06:20:16.850Z,-6.40
2018-02-27T06:22:44.398Z,-6.40
2018-02-27T06:25:12.668Z,-6.40
2018-02-27T06:27:40.184Z,-6.40
2018-02-27T06:30:07.696Z,-6.40
2018-02-27T06:32:35.228Z,-6.40
2018-02-27T06:35:03.509Z,-6.30
2018-02-27T06:37:31.808Z,-6.30
2018-02-27T06:39:59.318Z,-6.30
2018-02-27T06:42:26.830Z,-6.30
2018-02-27T06:44:54.391Z,-6.30
2018-02-27T06:47:21.920Z,-6.30
2018-02-27T06:49:50.193Z,-6.30
2018-02-27T06:52:18.479Z,-6.20
2018-02-27T06:54:45.973Z,-6.20
2018-02-27T06:57:13.521Z,-6.20
2018-02-27T06:59:41.018Z,-6.20
2018-02-27T07:02:08.548Z,-6.20
2018-02-27T07:04:36.061Z,-6.10
2018-02-27T07:07:04.342Z,-6.10
2018-02-27T07:09:32.602Z,-5.90
2018-02-27T07:12:00.122Z,-6.00
2018-02-27T07:14:27.619Z,-6.00
2018-02-27T07:16:55.920Z,-6.00
2018-02-27T07:19:23.424Z,-6.00
2018-02-27T07:21:50.943Z,-6.10
2018-02-27T07:24:18.450Z,-6.10
2018-02-27T07:26:45.958Z,-6.00
2018-02-27T07:29:13.459Z,-5.90
2018-02-27T07:31:40.970Z,-6.00
2018-02-27T07:34:08.480Z,-6.00
2018-02-27T07:36:35.993Z,-6.10
2018-02-27T07:39:03.494Z,-5.90
2018-02-27T07:41:31.021Z,-5.80
2018-02-27T07:43:58.535Z,-5.60
2018-02-27T07:46:26.059Z,-5.50
2018-02-27T07:48:53.578Z,-5.30
2018-02-27T07:51:21.108Z,-5.20
2018-02-27T07:53:48.621Z,-5.00
2018-02-27T07:56:16.153Z,-4.90
2018-02-27T07:58:43.655Z,-4.80
2018-02-27T08:01:11.165Z,-4.70
2018-02-27T08:03:38.683Z,-4.50
2018-02-27T08:06:06.306Z,-4.40
2018-02-27T08:08:33.809Z,-4.50
2018-02-27T08:11:01.344Z,-4.40
2018-02-27T08:13:28.847Z,-4.20
2018-02-27T08:15:57.151Z,-4.20
2018-02-27T08:18:24.661Z,-4.20
2018-02-27T08:20:52.440Z,-4.30
2018-02-27T08:23:19.954Z,-4.30
2018-02-27T08:25:47.478Z,-3.90
2018-02-27T08:28:14.995Z,-3.70
2018-02-27T08:30:42.505Z,-3.40
2018-02-27T08:33:10.014Z,-3.10
2018-02-27T08:35:37.533Z,-3.10
2018-02-27T08:38:05.029Z,-3.10
2018-02-27T08:40:32.558Z,-2.60
2018-02-27T08:43:00.075Z,-2.10
2018-02-27T08:45:28.350Z,-1.40
2018-02-27T08:47:56.617Z,-0.80
2018-02-27T08:50:24.889Z,-0.40
2018-02-27T08:52:53.162Z,-0.50
2018-02-27T08:55:20.672Z,-0.60
2018-02-27T08:57:48.161Z,-1.20
2018-02-27T09:00:15.685Z,-1.40
2018-02-27T09:02:43.177Z,-1.70
2018-02-27T09:05:10.681Z,-2.10
2018-02-27T09:07:38.198Z,-2.10
2018-02-27T09:10:05.717Z,-2.40
2018-02-27T09:12:33.225Z,-2.80
2018-02-27T09:15:00.718Z,-2.70
2018-02-27T09:17:28.233Z,-2.80
2018-02-27T09:19:55.721Z,-2.70
2018-02-27T09:22:24.009Z,-2.90
2018-02-27T09:24:51.523Z,-2.90
2018-02-27T09:27:19.048Z,-2.70
2018-02-27T09:29:46.565Z,-2.80
2018-02-27T09:32:14.841Z,-1.80
2018-02-27T09:34:43.111Z,-1.40
2018-02-27T09:37:11.381Z,-1.20
2018-02-27T09:39:39.652Z,-0.90
2018-02-27T09:42:07.946Z,-0.90
2018-02-27T09:44:36.220Z,-1.00
2018-02-27T09:47:04.498Z,-0.60
2018-02-27T09:49:32.758Z,-0.80
2018-02-27T09:52:00.308Z,-0.80
2018-02-27T09:54:27.819Z,-0.60
2018-02-27T09:56:55.368Z,-0.70
2018-02-27T09:59:22.890Z,-0.50
2018-02-27T10:01:50.436Z,-0.50
2018-02-27T10:04:17.946Z,-0.40
2018-02-27T10:06:45.468Z,-0.30
2018-02-27T10:09:12.982Z,-0.30
2018-02-27T10:11:40.497Z,-0.40
2018-02-27T10:14:08.026Z,-0.40
2018-02-27T10:16:35.537Z,-0.20
2018-02-27T10:19:03.046Z,-0.10
2018-02-27T10:21:30.569Z,0.00
2018-02-27T12:28:31.008Z,1.00
2018-02-27T12:30:58.531Z,1.00
2018-02-27T12:33:26.042Z,0.80
2018-02-27T12:35:54.318Z,0.90
2018-02-27T12:38:22.585Z,1.00
2018-02-27T12:40:50.885Z,0.90
2018-02-27T12:43:18.398Z,0.80
2018-02-27T12:45:45.919Z,0.70
2018-02-27T12:48:13.425Z,0.70
2018-02-27T12:50:40.973Z,0.80
2018-02-27T12:53:08.492Z,0.60
2018-02-27T12:55:36.052Z,0.70
2018-02-27T12:58:03.545Z,0.70
2018-02-27T13:00:31.871Z,0.10
2018-02-27T13:02:59.362Z,0.10
2018-02-27T13:05:26.901Z,0.00
2018-02-27T13:07:54.420Z,-0.20
2018-02-27T13:10:21.951Z,-0.20
2018-02-27T13:12:49.465Z,-0.30
2018-02-27T13:15:17.008Z,-0.30
2018-02-27T13:17:45.271Z,0.00
2018-02-27T13:20:12.766Z,0.00
2018-02-27T13:22:40.285Z,0.30
2018-02-27T13:25:07.790Z,0.40
2018-02-27T13:27:35.319Z,0.50
2018-02-27T13:30:03.589Z,0.80
2018-02-27T13:32:31.858Z,0.70
2018-02-27T13:34:59.381Z,0.70
2018-02-27T13:37:26.907Z,0.60
2018-02-27T13:39:54.419Z,0.50
2018-02-27T13:42:21.984Z,0.40
2018-02-27T13:44:49.498Z,0.50
2018-02-27T13:47:17.033Z,0.70
2018-02-27T13:49:45.290Z,0.80
2018-02-27T13:52:13.577Z,0.80
2018-02-27T13:54:41.860Z,0.80
2018-02-27T13:57:10.149Z,0.90
2018-02-27T13:59:37.651Z,0.90
2018-02-27T14:02:05.163Z,0.90
2018-02-27T14:04:32.675Z,1.00
2018-02-27T14:07:00.185Z,1.00
2018-02-27T14:09:27.692Z,0.90
2018-02-27T14:11:55.212Z,0.90
2018-02-27T14:14:22.732Z,1.00
2018-02-27T14:16:51.011Z,1.10
2018-02-27T14:19:19.299Z,1.00
2018-02-27T14:21:46.854Z,1.00
2018-02-27T14:24:15.141Z,0.90
2018-02-27T14:26:42.895Z,0.80
2018-02-27T14:29:10.430Z,0.70
2018-02-27T14:31:37.949Z,0.70
2018-02-27T14:34:05.453Z,0.60
2018-02-27T14:36:33.734Z,0.50
2018-02-27T14:39:02.028Z,0.50
2018-02-27T14:41:29.570Z,0.50
2018-02-27T14:43:57.834Z,0.60
2018-02-27T14:46:25.393Z,0.60
2018-02-27T14:48:52.900Z,0.50
2018-02-27T14:51:20.431Z,0.60
2018-02-27T14:53:48.691Z,0.70
2018-02-27T14:56:16.966Z,0.70
2018-02-27T14:58:44.464Z,0.60
2018-02-27T15:01:11.970Z,0.70
2018-02-27T15:03:39.489Z,0.60
2018-02-27T15:06:07.021Z,0.50
2018-02-27T15:08:34.627Z,0.40
2018-02-27T15:11:02.189Z,0.30
2018-02-27T15:13:29.701Z,0.10
2018-02-27T15:15:57.228Z,0.00
2018-02-27T15:18:24.868Z,-0.20
2018-02-27T15:20:52.452Z,-0.40
2018-02-27T15:23:19.952Z,-0.60
2018-02-27T15:25:47.478Z,-0.80
2018-02-27T15:28:15.755Z,-0.80
2018-02-27T15:30:44.030Z,-0.60
2018-02-27T15:33:12.314Z,-0.50
2018-02-27T15:35:40.626Z,-0.50
2018-02-27T15:38:08.138Z,-0.50
2018-02-27T15:40:36.436Z,-0.30
2018-02-27T15:43:03.955Z,-0.30
2018-02-27T15:45:31.501Z,-0.30
2018-02-27T15:47:59.003Z,-0.30
2018-02-27T15:50:27.300Z,-0.20
2018-02-27T15:52:54.870Z,-0.30
2018-02-27T15:55:22.415Z,-0.20
2018-02-27T15:57:49.933Z,-0.30
2018-02-27T16:00:17.440Z,-0.40
2018-02-27T16:02:44.972Z,-0.20
2018-02-27T16:05:13.245Z,-0.20
2018-02-27T16:07:41.557Z,-0.40
2018-02-27T16:10:09.087Z,-0.40
2018-02-27T16:12:37.356Z,-0.50
2018-02-27T16:15:05.619Z,-0.40
2018-02-27T16:17:33.146Z,-0.40
2018-02-27T16:20:00.654Z,-0.40
2018-02-27T16:22:29.763Z,-0.40
2018-02-27T16:24:57.278Z,-0.40
2018-02-27T16:27:24.814Z,-0.40
2018-02-27T16:29:52.496Z,-0.50
2018-02-27T16:32:20.033Z,-0.50
2018-02-27T16:34:47.548Z,-0.50
2018-02-27T16:37:15.862Z,-0.50
2018-02-27T16:39:43.424Z,-0.50
2018-02-27T16:42:10.942Z,-0.50
2018-02-27T16:44:39.242Z,-0.50
2018-02-27T16:47:06.774Z,-0.60
2018-02-27T16:49:35.066Z,-0.50
2018-02-27T16:52:02.598Z,-0.50
2018-02-27T16:54:30.115Z,-0.60
2018-02-27T16:56:57.713Z,-0.70
2018-02-27T16:59:25.230Z,-0.80
2018-02-27T17:01:52.772Z,-0.90
2018-02-27T17:04:20.291Z,-0.80
2018-02-27T17:06:47.808Z,-0.80
2018-02-27T17:09:15.305Z,-0.90
2018-02-27T17:11:43.497Z,-0.80
2018-02-27T17:14:11.771Z,-0.90
2018-02-27T17:16:40.077Z,-0.80
2018-02-27T17:19:07.578Z,-0.80
2018-02-27T17:21:35.870Z,-0.90
2018-02-27T17:24:03.385Z,-0.90
2018-02-27T17:26:30.954Z,-0.80
2018-02-27T17:28:58.595Z,-0.80
2018-02-27T17:31:26.128Z,-0.80
2018-02-27T17:33:54.411Z,-0.80
2018-02-27T17:36:22.705Z,-0.90
2018-02-27T17:38:50.222Z,-0.90
2018-02-27T17:41:17.840Z,-0.80
2018-02-27T17:43:45.343Z,-0.90
2018-02-27T17:46:12.850Z,-0.90
2018-02-27T17:48:40.338Z,-0.90
2018-02-27T17:51:07.869Z,-0.90
2018-02-27T17:53:35.383Z,-0.90
2018-02-27T17:56:02.916Z,-0.90
2018-02-27T17:58:30.432Z,-0.90
2018-02-27T18:00:57.952Z,-1.00
2018-02-27T18:03:25.460Z,-1.00
2018-02-27T18:05:53.001Z,-1.00
2018-02-27T18:08:20.512Z,-1.00
2018-02-27T18:10:48.030Z,-1.00
2018-02-27T18:13:15.545Z,-1.00
2018-02-27T18:15:43.066Z,-1.00
2018-02-27T18:18:10.589Z,-0.90
2018-02-27T18:20:38.115Z,-0.90
2018-02-27T18:23:05.622Z,-0.90
2018-02-27T18:25:33.169Z,-0.90
2018-02-27T18:28:00.685Z,-0.80
2018-02-27T18:30:28.219Z,-0.80
2018-02-27T18:32:55.839Z,-1.00
2018-02-27T18:35:23.278Z,-1.00
2018-02-27T18:37:50.837Z,-1.00
2018-02-27T18:40:18.362Z,-1.00
2018-02-27T18:42:45.910Z,-1.10
2018-02-27T18:45:13.420Z,-1.10
2018-02-27T18:47:40.948Z,-1.00
2018-02-27T18:50:08.480Z,-1.00
2018-02-27T18:52:36.015Z,-1.00
2018-02-27T18:55:04.306Z,-1.50
2018-02-27T18:57:31.832Z,-1.50
2018-02-27T18:59:59.344Z,-1.60
2018-02-27T19:02:26.867Z,-1.80
2018-02-27T19:04:55.139Z,-2.00
2018-02-27T19:07:23.449Z,-2.10
2018-02-27T19:09:50.967Z,-2.10
2018-02-27T19:12:19.267Z,-2.00
2018-02-27T19:14:46.793Z,-2.00
2018-02-27T19:17:14.341Z,-1.80
2018-02-27T19:19:41.867Z,-1.70
2018-02-27T19:22:09.407Z,-1.70
2018-02-27T19:24:36.912Z,-1.70
2018-02-27T19:27:04.454Z,-1.70
2018-02-27T19:29:31.966Z,-2.00
2018-02-27T19:31:59.499Z,-2.00
2018-02-27T19:34:27.011Z,-2.00
2018-02-27T19:36:54.563Z,-1.90
2018-02-27T19:39:22.094Z,-1.90
2018-02-27T19:41:50.401Z,-2.00
2018-02-27T19:44:17.937Z,-2.00
2018-02-27T19:46:46.225Z,-2.20
2018-02-27T19:49:13.745Z,-2.30
2018-02-27T19:51:41.265Z,-2.20
2018-02-27T19:54:08.779Z,-2.10
2018-02-27T19:56:37.066Z,-2.00
2018-02-27T19:59:05.360Z,-2.00
2018-02-27T20:01:32.904Z,-2.00
2018-02-27T20:04:00.417Z,-2.00
2018-02-27T20:06:27.962Z,-2.00
2018-02-27T20:08:55.484Z,-2.00
2018-02-27T20:11:23.019Z,-1.90
2018-02-27T20:13:51.336Z,-1.90
2018-02-27T20:16:18.880Z,-1.90
2018-02-27T20:18:46.414Z,-1.90
2018-02-27T20:21:14.719Z,-2.00
2018-02-27T20:23:48.006Z,-2.00
2018-02-27T20:26:15.528Z,-2.10
2018-02-27T20:28:48.702Z,-2.30
2018-02-27T20:31:16.243Z,-2.40
2018-02-27T20:33:43.768Z,-2.30
2018-02-27T20:36:11.319Z,-2.40
2018-02-27T20:38:45.238Z,-2.20
2018-02-27T20:41:12.764Z,-2.20
2018-02-27T20:43:40.288Z,-2.20
2018-02-27T20:46:07.816Z,-2.20
2018-02-27T20:48:36.246Z,-2.10
2018-02-27T20:51:03.776Z,-2.20
2018-02-27T20:53:31.284Z,-2.10
2018-02-27T20:55:58.822Z,-2.10
2018-02-27T20:58:27.090Z,-2.10
2018-02-27T21:00:54.622Z,-2.10
2018-02-27T21:03:22.135Z,-2.10
2018-02-27T21:05:49.654Z,-2.00
2018-02-27T21:08:17.202Z,-2.00
2018-02-27T21:10:44.774Z,-2.10
2018-02-27T21:13:12.298Z,-2.10
2018-02-27T21:15:39.882Z,-2.20
2018-02-27T21:18:07.403Z,-2.30
2018-02-27T21:20:35.684Z,-2.30
2018-02-27T21:23:03.967Z,-2.30
2018-02-27T21:25:31.481Z,-2.30
2018-02-27T21:27:59.010Z,-2.20
2018-02-27T21:30:26.605Z,-2.30
2018-02-27T21:32:54.080Z,-2.30
2018-02-27T21:35:21.600Z,-2.30
2018-02-27T21:37:49.118Z,-2.40
2018-02-27T21:40:17.400Z,-2.50
2018-02-27T21:42:44.938Z,-2.50
2018-02-27T21:45:13.228Z,-2.60
2018-02-27T21:47:41.542Z,-2.60
2018-02-27T21:50:09.052Z,-2.60
2018-02-27T21:52:37.380Z,-3.00
2018-02-27T21:55:04.862Z,-3.00
2018-02-27T21:57:32.390Z,-3.00
2018-02-27T21:59:59.919Z,-3.10
2018-02-27T22:02:28.288Z,-3.20
2018-02-27T22:04:56.588Z,-3.20
2018-02-27T22:07:24.198Z,-3.20
2018-02-27T22:09:51.734Z,-3.20
2018-02-27T22:12:19.254Z,-3.30
2018-02-27T22:14:47.550Z,-3.50
2018-02-27T22:17:15.069Z,-3.50
2018-02-27T22:19:43.375Z,-3.50
2018-02-27T22:22:10.891Z,-3.50
2018-02-27T22:24:38.428Z,-3.60
2018-02-27T22:27:06.379Z,-3.80
2018-02-27T22:29:33.901Z,-3.80
2018-02-27T22:32:02.220Z,-4.00
2018-02-27T22:34:29.738Z,-4.00
2018-02-27T22:36:58.033Z,-4.00
2018-02-27T22:39:25.628Z,-4.00
2018-02-27T22:41:53.140Z,-4.10
2018-02-27T22:44:20.698Z,-4.10
2018-02-27T22:46:48.244Z,-4.00
2018-02-27T22:49:16.540Z,-4.00
2018-02-27T22:51:44.092Z,-4.10
2018-02-27T22:54:11.597Z,-4.20
2018-02-27T22:56:39.126Z,-4.10
2018-02-27T22:59:06.666Z,-4.10
2018-02-27T23:01:34.179Z,-4.10
2018-02-27T23:04:01.733Z,-4.10
2018-02-27T23:06:29.249Z,-4.10
2018-02-27T23:08:56.788Z,-4.10
2018-02-27T23:11:25.073Z,-4.20
2018-02-27T23:13:53.353Z,-4.20
2018-02-27T23:16:21.657Z,-4.30
2018-02-27T23:18:49.180Z,-4.30
2018-02-27T23:21:17.480Z,-4.40
2018-02-27T23:23:56.560Z,-4.40
2018-02-27T23:26:29.458Z,-4.50
2018-02-27T23:29:04.996Z,-4.50
2018-02-27T23:31:32.969Z,-4.70
2018-02-27T23:34:16.274Z,-4.70
2018-02-27T23:36:43.800Z,-4.70
2018-02-27T23:39:11.320Z,-4.70
2018-02-27T23:41:38.827Z,-4.70
2018-02-27T23:44:06.351Z,-4.80
2018-02-27T23:46:33.859Z,-4.90
2018-02-27T23:49:01.396Z,-4.90
2018-02-27T23:51:28.926Z,-4.90
2018-02-27T23:53:57.218Z,-5.10
2018-02-27T23:56:24.756Z,-5.10
2018-02-27T23:58:53.049Z,-5.10
